Time;durP1;ratioP1;P1;durP2;ratioP2;P2;SDS_P1;SDS_P2;PMS_P1;PMS_P2;Temp;Humidity;BMP_temperature;BMP_pressure;BME280_temperature;BME280_humidity;BME280_pressure;Samples;Min_cycle;Max_cycle;Signal;HPM_P1;HPM_P2
2022/05/23 00:02:04;;;;;;;7.53;2.70;;;14.30;99.90;;;;;;4941265;28;20109;-81
2022/05/23 00:04:31;;;;;;;8.02;2.45;;;14.30;99.90;;;;;;4972703;28;20054;-81
2022/05/23 00:06:57;;;;;;;7.68;2.58;;;14.20;99.90;;;;;;4955145;28;20530;-82
2022/05/23 00:09:24;;;;;;;5.55;2.83;;;14.10;99.90;;;;;;4972810;28;20050;-80
2022/05/23 00:11:50;;;;;;;9.60;2.92;;;14.10;99.90;;;;;;4976040;28;20046;-81
2022/05/23 00:14:16;;;;;;;8.38;2.78;;;14.10;99.90;;;;;;4972546;28;20050;-81
2022/05/23 00:16:48;;;;;;;6.30;2.97;;;14.00;99.90;;;;;;4954859;28;20459;-81
2022/05/23 00:19:15;;;;;;;8.27;2.95;;;14.00;99.90;;;;;;4972412;28;20077;-81
2022/05/23 00:21:42;;;;;;;9.38;3.20;;;14.00;99.90;;;;;;4955101;28;20117;-81
2022/05/23 00:24:09;;;;;;;11.35;3.00;;;14.00;99.90;;;;;;4940323;28;20142;-80
2022/05/23 00:26:36;;;;;;;4.72;2.47;;;13.90;99.90;;;;;;4972674;28;20061;-80
2022/05/23 00:29:02;;;;;;;9.13;2.70;;;13.90;99.90;;;;;;4977793;28;20426;-80
2022/05/23 00:31:29;;;;;;;8.82;2.72;;;13.90;99.90;;;;;;4960406;28;20054;-85
2022/05/23 00:36:39;;;;;;;9.90;2.60;;;13.80;99.90;;;;;;4971947;28;20086;-81
2022/05/23 00:39:05;;;;;;;6.25;2.45;;;13.80;99.90;;;;;;4954821;28;20341;-80
2022/05/23 00:44:32;;;;;;;11.02;3.55;;;13.70;99.90;;;;;;4941706;28;20043;-82
2022/05/23 00:47:11;;;;;;;5.53;2.50;;;13.70;99.90;;;;;;4973283;28;20086;-82
2022/05/23 00:49:37;;;;;;;5.32;2.30;;;13.60;99.90;;;;;;4954667;28;20503;-81
2022/05/23 00:52:13;;;;;;;5.97;2.90;;;13.60;99.90;;;;;;4954487;28;20061;-81
2022/05/23 00:54:44;;;;;;;5.93;2.70;;;13.60;99.90;;;;;;4972506;28;20058;-82
2022/05/23 00:57:15;;;;;;;8.30;3.15;;;13.50;99.90;;;;;;4954934;28;20086;-81
2022/05/23 00:59:42;;;;;;;6.53;2.80;;;13.50;99.90;;;;;;4980209;28;20059;-80
2022/05/23 01:02:10;;;;;;;7.30;3.40;;;13.50;99.90;;;;;;4977959;28;20063;-81
2022/05/23 01:04:38;;;;;;;8.45;3.15;;;13.50;99.90;;;;;;4975569;28;20498;-81
2022/05/23 01:07:04;;;;;;;7.40;2.97;;;13.40;99.90;;;;;;4975689;28;20105;-81
2022/05/23 01:09:30;;;;;;;6.28;2.60;;;13.40;99.90;;;;;;4975529;28;20133;-81
2022/05/23 01:11:57;;;;;;;9.80;3.65;;;13.30;99.90;;;;;;4958349;28;20150;-81
2022/05/23 01:14:24;;;;;;;7.00;3.40;;;13.30;99.90;;;;;;4978172;28;20054;-80
2022/05/23 01:16:50;;;;;;;10.13;4.00;;;13.30;99.90;;;;;;4978043;28;20054;-82
2022/05/23 01:19:16;;;;;;;12.95;3.70;;;13.30;99.90;;;;;;4975179;28;20590;-82
2022/05/23 01:21:49;;;;;;;8.30;2.75;;;13.20;99.90;;;;;;4957823;28;20070;-80
2022/05/23 01:24:37;;;;;;;8.68;3.17;;;13.20;99.90;;;;;;4957873;28;20085;-81
2022/05/23 01:27:06;;;;;;;8.70;3.55;;;13.20;99.90;;;;;;4957674;28;20063;-83
2022/05/23 01:29:32;;;;;;;8.65;3.78;;;13.10;99.90;;;;;;4976577;28;20065;-81
2022/05/23 01:31:59;;;;;;;9.02;3.60;;;13.10;99.90;;;;;;4984643;28;20141;-80
2022/05/23 01:34:26;;;;;;;7.68;2.75;;;13.10;99.90;;;;;;4976215;28;20062;-80
2022/05/23 01:36:53;;;;;;;7.95;4.18;;;13.10;99.90;;;;;;4957577;28;20066;-80
2022/05/23 01:39:19;;;;;;;9.70;4.15;;;13.10;99.90;;;;;;4957747;28;20059;-82
2022/05/23 01:41:45;;;;;;;8.82;3.80;;;13.10;99.90;;;;;;4957335;28;20141;-80
2022/05/23 01:44:11;;;;;;;7.65;3.17;;;13.10;99.90;;;;;;4975911;28;20105;-81
2022/05/23 01:46:37;;;;;;;7.28;3.63;;;13.10;99.90;;;;;;4960281;28;20055;-80
2022/05/23 01:49:03;;;;;;;8.82;3.50;;;13.10;99.90;;;;;;4974911;28;20145;-79
2022/05/23 01:51:29;;;;;;;7.50;4.13;;;13.20;99.90;;;;;;4957352;28;20054;-81
2022/05/23 01:53:55;;;;;;;10.45;4.05;;;13.20;99.90;;;;;;4975213;28;20059;-81
2022/05/23 01:56:21;;;;;;;7.82;3.67;;;13.20;99.90;;;;;;4979876;28;20428;-83
2022/05/23 02:01:31;;;;;;;8.53;3.50;;;13.20;99.90;;;;;;4976934;28;20054;-79
2022/05/23 02:03:57;;;;;;;7.97;4.15;;;13.20;99.90;;;;;;4940832;28;20066;-80
2022/05/23 02:06:22;;;;;;;11.80;4.18;;;13.20;99.90;;;;;;4941278;28;20051;-81
2022/05/23 02:08:48;;;;;;;7.28;4.00;;;13.20;99.90;;;;;;4974461;28;20516;-81
2022/05/23 02:11:15;;;;;;;12.10;3.80;;;13.20;99.90;;;;;;4956173;28;20063;-83
2022/05/23 02:13:43;;;;;;;11.18;4.15;;;13.20;99.90;;;;;;4956858;28;20339;-81
2022/05/23 02:16:10;;;;;;;11.27;3.95;;;13.20;99.90;;;;;;4976656;28;20058;-82
2022/05/23 02:18:36;;;;;;;8.32;3.75;;;13.20;99.90;;;;;;4974824;28;20061;-82
2022/05/23 02:21:02;;;;;;;8.32;3.85;;;13.20;99.90;;;;;;4974413;28;20043;-83
2022/05/23 02:23:28;;;;;;;7.80;3.33;;;13.20;99.90;;;;;;4959608;28;20098;-81
2022/05/23 02:25:54;;;;;;;6.38;4.05;;;13.20;99.90;;;;;;4978874;28;20050;-79
2022/05/23 02:28:21;;;;;;;8.02;3.83;;;13.20;99.90;;;;;;4974217;28;20479;-80
2022/05/23 02:30:48;;;;;;;5.45;3.53;;;13.20;99.90;;;;;;4976583;28;20050;-80
2022/05/23 02:33:15;;;;;;;10.35;3.95;;;13.30;99.90;;;;;;4974116;28;20059;-80
2022/05/23 02:35:42;;;;;;;8.20;3.40;;;13.30;99.90;;;;;;4956635;28;20400;-80
2022/05/23 02:38:07;;;;;;;6.13;3.42;;;13.30;99.90;;;;;;4956458;28;20495;-79
2022/05/23 02:40:34;;;;;;;15.45;4.88;;;13.30;99.90;;;;;;4956474;28;20055;-80
2022/05/23 02:42:59;;;;;;;6.72;2.92;;;13.30;99.90;;;;;;4974016;28;20121;-78
2022/05/23 02:45:25;;;;;;;9.27;3.30;;;13.30;99.90;;;;;;4975921;28;20579;-82
2022/05/23 02:47:51;;;;;;;7.65;3.35;;;13.30;99.90;;;;;;4960476;28;20130;-79
2022/05/23 02:50:17;;;;;;;6.53;3.15;;;13.20;99.90;;;;;;4975863;28;20105;-79
2022/05/23 02:52:44;;;;;;;8.55;3.28;;;13.20;99.90;;;;;;4946394;28;20070;-82
2022/05/23 02:55:10;;;;;;;8.18;3.40;;;13.20;99.90;;;;;;4956094;28;20097;-78
2022/05/23 02:57:40;;;;;;;8.93;3.58;;;13.20;99.90;;;;;;4957189;28;20098;-80
2022/05/23 03:00:08;;;;;;;6.20;3.25;;;13.10;99.90;;;;;;4973271;28;20059;-79
2022/05/23 03:05:18;;;;;;;9.37;3.93;;;13.10;99.90;;;;;;4956610;28;20054;-80
2022/05/23 03:07:43;;;;;;;6.47;2.85;;;13.00;99.90;;;;;;4973666;28;20302;-79
2022/05/23 03:10:10;;;;;;;7.38;2.95;;;13.00;99.90;;;;;;4974195;28;20609;-80
2022/05/23 03:12:36;;;;;;;6.93;3.03;;;13.00;99.90;;;;;;4973031;28;20051;-81
2022/05/23 03:15:05;;;;;;;8.75;2.78;;;13.00;99.90;;;;;;4955704;28;20132;-81
2022/05/23 03:17:31;;;;;;;7.28;3.47;;;13.00;99.90;;;;;;4956670;28;20491;-80
2022/05/23 03:19:57;;;;;;;9.45;3.58;;;13.00;99.90;;;;;;4977211;28;20459;-80
2022/05/23 03:27:53;;;;;;;5.55;2.88;;;12.90;99.90;;;;;;4958505;28;20474;-82
2022/05/23 03:30:19;;;;;;;6.72;3.40;;;12.90;99.90;;;;;;4974414;28;20055;-81
2022/05/23 03:32:45;;;;;;;6.63;2.85;;;12.90;99.90;;;;;;4977426;28;20455;-85
2022/05/23 03:35:11;;;;;;;7.47;3.38;;;13.00;99.90;;;;;;4955501;28;20053;-81
2022/05/23 03:37:38;;;;;;;8.88;3.20;;;12.90;99.90;;;;;;4973135;28;20054;-82
2022/05/23 03:40:06;;;;;;;6.82;2.88;;;12.90;99.90;;;;;;4971330;28;20094;-81
2022/05/23 03:42:32;;;;;;;10.88;3.70;;;13.00;99.90;;;;;;4972588;28;20165;-80
2022/05/23 03:44:58;;;;;;;7.70;3.20;;;13.00;99.90;;;;;;4956486;28;20063;-81
2022/05/23 03:47:24;;;;;;;8.18;3.38;;;13.00;99.90;;;;;;4972790;28;20514;-84
2022/05/23 03:49:50;;;;;;;6.78;3.03;;;13.00;99.90;;;;;;4975474;28;20051;-81
2022/05/23 03:52:16;;;;;;;6.45;2.83;;;13.00;99.90;;;;;;4974143;28;20423;-79
2022/05/23 03:54:42;;;;;;;7.20;3.22;;;13.00;99.90;;;;;;4972470;28;20061;-81
2022/05/23 03:57:08;;;;;;;7.68;3.25;;;13.00;99.90;;;;;;4972646;28;20039;-80
2022/05/23 03:59:34;;;;;;;7.60;3.30;;;13.00;99.90;;;;;;4973117;28;20097;-81
2022/05/23 04:02:00;;;;;;;9.95;3.45;;;13.00;99.90;;;;;;4954724;28;20054;-81
2022/05/23 04:04:31;;;;;;;10.70;3.50;;;13.10;99.90;;;;;;4972682;28;20090;-83
2022/05/23 04:07:02;;;;;;;7.28;3.25;;;13.10;99.90;;;;;;4956072;28;20065;-81
2022/05/23 04:09:29;;;;;;;10.23;3.78;;;13.10;99.90;;;;;;4972104;28;20109;-81
2022/05/23 04:11:56;;;;;;;9.55;3.63;;;13.10;99.90;;;;;;4972738;28;20066;-83
2022/05/23 04:14:23;;;;;;;8.57;3.60;;;13.10;99.90;;;;;;4939694;28;20506;-82
2022/05/23 04:16:49;;;;;;;6.47;3.05;;;13.10;99.90;;;;;;4962560;28;20051;-81
2022/05/23 04:19:16;;;;;;;9.27;3.10;;;13.10;99.90;;;;;;4977010;28;20061;-80
2022/05/23 04:21:44;;;;;;;7.53;3.50;;;13.10;99.90;;;;;;4974281;28;20517;-79
2022/05/23 04:24:11;;;;;;;10.18;3.60;;;13.10;99.90;;;;;;4954956;28;20094;-82
2022/05/23 04:26:37;;;;;;;9.15;3.53;;;13.10;99.90;;;;;;4954609;28;20053;-82
2022/05/23 04:29:06;;;;;;;9.07;3.80;;;13.10;99.90;;;;;;4954929;28;20058;-82
2022/05/23 04:31:33;;;;;;;7.63;3.72;;;13.00;99.90;;;;;;4958021;28;20055;-80
2022/05/23 04:36:46;;;;;;;8.63;3.97;;;13.00;99.90;;;;;;4962753;28;20114;-82
2022/05/23 04:39:12;;;;;;;9.35;3.60;;;13.10;99.90;;;;;;4979680;28;20502;-84
2022/05/23 04:41:38;;;;;;;9.32;3.45;;;13.10;99.90;;;;;;4966023;28;20120;-83
2022/05/23 04:44:04;;;;;;;7.20;3.78;;;13.10;99.90;;;;;;4961371;28;20051;-82
2022/05/23 04:46:30;;;;;;;8.40;3.72;;;13.10;99.90;;;;;;4946183;28;20507;-81
2022/05/23 04:51:40;;;;;;;9.63;4.37;;;13.10;99.90;;;;;;4979701;28;20043;-79
2022/05/23 04:54:07;;;;;;;10.68;3.85;;;13.10;99.90;;;;;;4961746;28;20101;-81
2022/05/23 04:56:34;;;;;;;7.10;4.03;;;13.20;99.90;;;;;;4960991;28;20082;-81
2022/05/23 04:59:00;;;;;;;8.88;4.68;;;13.20;99.90;;;;;;4977989;28;20415;-82
2022/05/23 05:01:26;;;;;;;9.13;4.47;;;13.20;99.90;;;;;;4980875;28;20105;-81
2022/05/23 05:03:53;;;;;;;11.45;4.70;;;13.20;99.90;;;;;;4968233;28;20055;-80
2022/05/23 05:06:21;;;;;;;12.05;4.05;;;13.20;99.90;;;;;;4962643;28;20050;-79
2022/05/23 05:08:48;;;;;;;14.13;4.13;;;13.30;99.90;;;;;;4946824;28;20130;-84
2022/05/23 05:11:14;;;;;;;8.88;4.32;;;13.30;99.90;;;;;;4961018;28;20141;-85
2022/05/23 05:13:42;;;;;;;10.80;4.97;;;13.30;99.90;;;;;;4977131;28;20101;-82
2022/05/23 05:16:09;;;;;;;10.25;4.43;;;13.30;99.90;;;;;;4960503;28;20045;-81
2022/05/23 05:18:35;;;;;;;13.80;5.82;;;13.30;99.90;;;;;;4978374;28;20117;-82
2022/05/23 05:21:05;;;;;;;6.95;3.90;;;13.40;99.90;;;;;;4960949;28;20058;-83
2022/05/23 05:23:31;;;;;;;11.88;4.68;;;13.40;99.90;;;;;;4961259;28;20055;-82
2022/05/23 05:25:57;;;;;;;7.95;4.18;;;13.40;99.90;;;;;;4944735;28;20057;-83
2022/05/23 05:28:26;;;;;;;13.55;5.03;;;13.50;99.90;;;;;;4978366;28;20043;-80
2022/05/23 05:30:56;;;;;;;8.93;5.43;;;13.60;99.90;;;;;;4981743;28;20518;-82
2022/05/23 05:33:32;;;;;;;12.63;4.72;;;13.70;99.90;;;;;;4961330;28;20498;-79
2022/05/23 05:36:06;;;;;;;9.05;5.35;;;13.70;99.90;;;;;;4960361;28;20065;-78
2022/05/23 05:38:37;;;;;;;9.63;4.95;;;13.90;99.90;;;;;;4979513;28;20133;-79
2022/05/23 05:41:13;;;;;;;12.13;5.63;;;14.00;99.90;;;;;;4962832;28;20498;-78
2022/05/23 05:43:48;;;;;;;11.02;4.90;;;14.10;99.90;;;;;;4960530;28;20062;-79
2022/05/23 05:46:21;;;;;;;10.50;4.72;;;14.30;99.90;;;;;;4975885;28;20055;-80
2022/05/23 05:48:49;;;;;;;10.02;5.50;;;14.40;99.90;;;;;;4925882;28;20116;-81
2022/05/23 05:51:19;;;;;;;8.52;4.50;;;14.50;99.90;;;;;;4976686;28;20050;-78
2022/05/23 05:53:45;;;;;;;9.70;4.65;;;14.60;99.90;;;;;;4944172;28;20059;-79
2022/05/23 05:56:11;;;;;;;8.80;4.75;;;14.70;99.90;;;;;;4975056;28;20043;-80
2022/05/23 05:58:38;;;;;;;9.35;4.63;;;14.70;99.90;;;;;;4960092;28;20051;-81
2022/05/23 06:01:04;;;;;;;12.23;5.30;;;14.80;99.90;;;;;;4957581;28;20054;-82
2022/05/23 06:03:31;;;;;;;17.70;6.00;;;14.90;99.90;;;;;;4958357;28;20106;-82
2022/05/23 06:11:26;;;;;;;8.05;4.82;;;15.30;99.90;;;;;;4957126;28;20061;-82
2022/05/23 06:13:55;;;;;;;12.65;4.72;;;15.40;99.90;;;;;;4958283;28;20062;-83
2022/05/23 06:16:22;;;;;;;9.38;4.75;;;15.50;99.90;;;;;;4979376;28;20051;-82
2022/05/23 06:18:48;;;;;;;15.13;5.25;;;15.50;99.90;;;;;;4963537;28;20055;-79
2022/05/23 06:21:15;;;;;;;10.23;4.95;;;15.60;99.90;;;;;;4974940;28;20059;-80
2022/05/23 06:23:47;;;;;;;10.13;4.75;;;15.70;99.90;;;;;;4974922;28;20058;-80
2022/05/23 06:26:18;;;;;;;8.38;4.38;;;15.80;99.90;;;;;;4956749;28;20097;-79
2022/05/23 06:28:44;;;;;;;8.27;4.80;;;15.90;99.90;;;;;;4956547;28;20538;-79
2022/05/23 06:31:11;;;;;;;9.80;5.40;;;16.00;99.90;;;;;;4958346;28;20542;-79
2022/05/23 06:33:38;;;;;;;10.27;5.72;;;16.20;99.90;;;;;;4975426;28;20097;-80
2022/05/23 06:36:09;;;;;;;9.23;5.22;;;16.40;99.90;;;;;;4941295;28;20051;-79
2022/05/23 06:38:37;;;;;;;9.45;4.95;;;16.60;99.90;;;;;;4961588;28;20375;-80
2022/05/23 06:41:06;;;;;;;8.35;4.82;;;16.70;99.90;;;;;;4962589;28;20601;-80
2022/05/23 06:43:33;;;;;;;10.35;5.03;;;16.80;99.90;;;;;;4975650;28;20050;-79
2022/05/23 06:45:59;;;;;;;9.55;5.10;;;17.00;99.90;;;;;;4956954;28;20486;-82
2022/05/23 06:48:26;;;;;;;10.82;4.90;;;17.20;99.90;;;;;;4973863;28;20077;-82
2022/05/23 06:50:52;;;;;;;10.10;4.68;;;17.30;99.90;;;;;;4958464;28;20137;-82
2022/05/23 06:53:20;;;;;;;12.20;5.00;;;17.40;99.90;;;;;;4976614;28;20053;-84
2022/05/23 06:55:46;;;;;;;9.80;4.80;;;17.50;99.90;;;;;;4974517;28;20058;-81
2022/05/23 06:58:12;;;;;;;11.05;4.68;;;17.50;99.90;;;;;;4973512;28;20089;-82
2022/05/23 07:00:39;;;;;;;9.45;5.13;;;17.60;99.90;;;;;;4973690;28;20078;-82
2022/05/23 07:03:05;;;;;;;10.00;5.78;;;17.80;99.90;;;;;;4972297;28;20057;-80
2022/05/23 07:13:46;;;;;;;9.05;5.03;;;18.30;99.90;;;;;;4978734;28;20145;-80
2022/05/23 07:16:13;;;;;;;11.38;5.32;;;18.50;99.90;;;;;;4956281;28;20507;-81
2022/05/23 07:18:39;;;;;;;9.00;5.22;;;18.70;99.90;;;;;;4972993;28;20491;-81
2022/05/23 07:21:07;;;;;;;9.85;4.97;;;18.80;99.90;;;;;;4955966;28;20059;-81
2022/05/23 07:23:36;;;;;;;9.90;5.03;;;18.90;99.90;;;;;;4955921;28;20058;-81
2022/05/23 07:26:09;;;;;;;10.95;5.25;;;19.00;99.90;;;;;;4975873;28;20399;-82
2022/05/23 07:28:35;;;;;;;13.80;5.80;;;19.20;99.90;;;;;;4982497;28;20051;-80
2022/05/23 07:31:03;;;;;;;9.68;5.18;;;19.30;99.90;;;;;;4977444;28;20121;-80
2022/05/23 07:33:29;;;;;;;16.33;5.63;;;19.40;99.90;;;;;;4958535;28;20088;-81
2022/05/23 07:36:00;;;;;;;11.65;5.13;;;19.60;99.90;;;;;;4973415;28;20051;-80
2022/05/23 07:38:28;;;;;;;11.63;6.20;;;19.70;99.90;;;;;;4956151;28;20121;-84
2022/05/23 07:40:54;;;;;;;11.10;5.43;;;19.90;99.90;;;;;;4956301;28;20274;-82
2022/05/23 07:43:23;;;;;;;10.38;5.53;;;20.00;99.90;;;;;;4974642;28;20399;-83
2022/05/23 07:45:50;;;;;;;8.45;5.18;;;20.10;99.90;;;;;;4973159;28;20061;-82
2022/05/23 07:48:16;;;;;;;13.60;5.30;;;20.10;99.90;;;;;;4957158;28;20054;-81
2022/05/23 07:50:43;;;;;;;10.85;5.65;;;20.10;99.90;;;;;;4961728;28;20059;-82
2022/05/23 08:01:29;;;;;;;11.60;6.28;;;20.00;99.90;;;;;;4972500;28;20157;-82
2022/05/23 08:03:56;;;;;;;12.48;5.57;;;20.20;99.90;;;;;;4957765;28;20047;-82
2022/05/23 08:06:21;;;;;;;12.95;5.65;;;20.40;99.90;;;;;;4973949;28;20166;-82
2022/05/23 08:08:47;;;;;;;10.07;5.63;;;20.60;99.90;;;;;;4979774;28;20074;-82
2022/05/23 08:11:13;;;;;;;10.65;5.00;;;20.60;99.90;;;;;;4971482;28;20057;-84
2022/05/23 08:13:45;;;;;;;11.15;5.70;;;20.80;99.90;;;;;;4972689;28;20074;-82
2022/05/23 08:16:11;;;;;;;12.48;5.47;;;20.90;99.90;;;;;;4972510;28;20109;-82
2022/05/23 08:18:37;;;;;;;11.75;5.60;;;21.00;99.90;;;;;;4972386;28;20419;-81
2022/05/23 08:21:02;;;;;;;10.27;5.28;;;20.90;99.90;;;;;;4972258;28;20684;-81
2022/05/23 08:23:29;;;;;;;9.63;5.30;;;21.00;99.90;;;;;;4975576;28;20050;-81
2022/05/23 08:25:56;;;;;;;9.32;6.03;;;21.00;99.90;;;;;;4956024;28;20059;-81
2022/05/23 08:28:22;;;;;;;11.68;5.90;;;21.00;99.70;;;;;;4972701;28;20763;-84
2022/05/23 08:30:48;;;;;;;9.25;5.28;;;21.20;99.80;;;;;;4957126;28;20058;-81
2022/05/23 08:33:14;;;;;;;13.38;5.95;;;21.50;99.90;;;;;;4961412;28;20138;-82
2022/05/23 08:35:40;;;;;;;10.57;5.30;;;21.70;99.20;;;;;;4971954;28;20116;-82
2022/05/23 08:38:06;;;;;;;12.15;5.10;;;22.00;99.00;;;;;;4977830;28;20403;-82
2022/05/23 08:41:09;;;;;;;13.18;5.28;;;22.10;98.50;;;;;;4954412;28;20075;-84
2022/05/23 08:44:05;;;;;;;9.18;4.93;;;22.40;97.70;;;;;;4972275;28;20054;-84
2022/05/23 08:46:41;;;;;;;9.50;4.65;;;22.60;96.40;;;;;;4972076;28;20514;-85
2022/05/23 08:49:29;;;;;;;7.63;4.85;;;22.70;96.40;;;;;;4977505;28;20062;-85
2022/05/23 08:52:38;;;;;;;7.60;4.38;;;23.00;96.90;;;;;;4973150;28;20069;-82
2022/05/23 08:55:14;;;;;;;7.78;4.13;;;23.30;96.80;;;;;;4926458;28;20078;-84
2022/05/23 08:58:12;;;;;;;10.27;4.32;;;23.40;95.40;;;;;;4972394;28;20055;-83
2022/05/23 09:00:41;;;;;;;7.97;4.57;;;23.50;95.60;;;;;;4954232;28;20066;-83
2022/05/23 09:03:30;;;;;;;8.18;4.97;;;23.50;95.00;;;;;;4954717;28;20063;-83
2022/05/23 09:06:17;;;;;;;11.02;5.18;;;23.70;95.00;;;;;;4973338;28;20129;-83
2022/05/23 09:09:02;;;;;;;9.07;4.43;;;23.80;95.10;;;;;;4973845;28;20047;-84
2022/05/23 09:11:36;;;;;;;12.60;4.53;;;24.10;95.20;;;;;;4972027;28;20126;-83
2022/05/23 09:14:07;;;;;;;7.63;5.10;;;24.00;94.70;;;;;;4971495;28;20104;-83
2022/05/23 09:16:40;;;;;;;10.30;5.30;;;24.10;94.10;;;;;;4954539;28;20059;-84
2022/05/23 09:19:25;;;;;;;9.23;5.72;;;24.20;94.10;;;;;;4971867;28;20053;-83
2022/05/23 09:24:38;;;;;;;8.80;5.45;;;24.40;94.60;;;;;;4976930;28;19926;-82
2022/05/23 09:27:26;;;;;;;9.93;5.55;;;24.50;94.20;;;;;;4979396;28;20186;-84
2022/05/23 09:29:54;;;;;;;9.90;6.32;;;24.60;94.00;;;;;;4975540;28;20058;-84
2022/05/23 09:32:34;;;;;;;8.68;5.00;;;24.50;93.90;;;;;;4975013;28;20402;-84
2022/05/23 09:35:06;;;;;;;10.57;4.68;;;24.60;94.10;;;;;;4977923;28;20510;-84
2022/05/23 09:37:39;;;;;;;9.90;4.43;;;24.70;94.50;;;;;;4976350;28;20090;-84
2022/05/23 09:40:09;;;;;;;8.07;4.95;;;24.90;93.70;;;;;;4957965;28;20189;-84
2022/05/23 09:48:13;;;;;;;6.65;4.78;;;25.20;93.00;;;;;;4958259;28;20134;-84
2022/05/23 09:50:59;;;;;;;9.65;5.05;;;25.20;92.70;;;;;;4977664;28;20055;-84
2022/05/23 09:53:32;;;;;;;11.80;5.30;;;25.30;92.90;;;;;;4973720;28;20051;-84
2022/05/23 09:56:34;;;;;;;10.48;4.88;;;25.50;91.80;;;;;;4974634;28;20094;-84
2022/05/23 09:59:23;;;;;;;8.10;4.78;;;25.60;91.00;;;;;;4957348;28;20065;-84
2022/05/23 10:01:49;;;;;;;8.43;4.70;;;25.60;91.70;;;;;;4976952;28;20054;-84
2022/05/23 10:04:22;;;;;;;9.73;5.10;;;25.60;91.70;;;;;;4979390;28;20077;-84
2022/05/23 10:06:50;;;;;;;9.23;4.03;;;25.90;92.00;;;;;;4977199;28;20427;-84
2022/05/23 10:09:32;;;;;;;11.13;4.40;;;26.10;92.40;;;;;;4973388;28;20126;-84
2022/05/23 10:12:01;;;;;;;8.35;4.30;;;26.50;90.90;;;;;;4974560;28;20457;-83
2022/05/23 10:14:44;;;;;;;8.35;3.97;;;26.80;91.50;;;;;;4974008;28;20086;-84
2022/05/23 10:17:26;;;;;;;9.23;4.70;;;26.90;90.20;;;;;;4961337;28;20058;-86
2022/05/23 10:19:53;;;;;;;10.75;5.30;;;26.80;88.70;;;;;;4977488;28;20137;-84
2022/05/23 10:22:25;;;;;;;9.68;4.80;;;26.70;90.00;;;;;;4958708;28;20140;-85
2022/05/23 10:24:58;;;;;;;7.72;4.30;;;26.60;89.50;;;;;;4957130;28;20110;-85
2022/05/23 10:28:02;;;;;;;7.88;4.80;;;26.50;89.70;;;;;;4956708;28;20384;-83
2022/05/23 10:30:33;;;;;;;7.60;3.70;;;26.50;89.50;;;;;;4907470;28;20093;-86
2022/05/23 10:33:18;;;;;;;9.88;4.55;;;26.60;90.10;;;;;;4965395;28;20042;-84
2022/05/23 10:35:59;;;;;;;12.43;4.65;;;26.60;90.70;;;;;;4974015;28;20475;-85
2022/05/23 10:42:07;;;;;;;12.35;5.07;;;26.30;89.90;;;;;;4975085;28;20526;-84
2022/05/23 10:44:57;;;;;;;12.73;5.18;;;26.10;90.20;;;;;;4942585;28;20145;-85
2022/05/23 10:47:32;;;;;;;7.80;4.07;;;26.10;91.10;;;;;;4959145;28;20082;-84
2022/05/23 10:50:26;;;;;;;8.27;3.83;;;26.20;91.30;;;;;;4958519;28;20104;-85
2022/05/23 10:53:37;;;;;;;6.22;2.85;;;26.50;90.50;;;;;;4973503;28;20054;-84
2022/05/23 10:56:35;;;;;;;7.07;3.35;;;26.90;90.80;;;;;;4952895;28;20090;-86
2022/05/23 10:59:09;;;;;;;8.35;2.83;;;27.30;86.70;;;;;;4973833;28;20581;-86
2022/05/23 11:02:05;;;;;;;11.75;4.15;;;27.70;87.40;;;;;;4957497;28;20059;-86
2022/05/23 11:04:43;;;;;;;9.07;3.33;;;28.00;81.30;;;;;;4966538;28;20085;-86
2022/05/23 11:07:27;;;;;;;5.95;3.08;;;28.10;80.50;;;;;;4957334;28;20558;-84
2022/05/23 11:10:01;;;;;;;6.85;2.80;;;28.30;76.30;;;;;;4976367;28;20101;-85
2022/05/23 11:12:58;;;;;;;7.75;2.63;;;28.20;75.40;;;;;;4939969;28;20066;-85
2022/05/23 11:15:37;;;;;;;6.05;2.72;;;28.40;76.00;;;;;;4973459;28;20058;-85
2022/05/23 11:18:37;;;;;;;8.27;3.05;;;28.50;74.10;;;;;;4975290;28;20057;-86
2022/05/23 11:21:10;;;;;;;5.45;2.25;;;28.60;73.20;;;;;;4976162;28;20356;-85
2022/05/23 11:23:45;;;;;;;7.47;2.38;;;28.70;68.30;;;;;;4940732;28;20855;-86
2022/05/23 11:26:25;;;;;;;8.05;2.03;;;28.40;65.60;;;;;;4978451;28;20051;-87
2022/05/23 11:34:53;;;;;;;7.57;2.40;;;29.10;63.90;;;;;;4972830;28;20086;-84
2022/05/23 11:39:54;;;;;;;7.32;2.10;;;29.40;60.00;;;;;;4955559;28;20081;-87
2022/05/23 11:42:31;;;;;;;6.05;2.00;;;29.40;60.00;;;;;;4972992;28;20472;-87
2022/05/23 11:47:52;;;;;;;6.63;1.90;;;29.60;58.00;;;;;;4978234;28;20479;-86
2022/05/23 11:50:25;;;;;;;6.28;1.85;;;29.80;56.60;;;;;;4973786;28;20503;-86
2022/05/23 11:53:16;;;;;;;5.28;1.60;;;30.00;56.50;;;;;;4974147;28;20050;-87
2022/05/23 11:55:51;;;;;;;5.13;1.83;;;30.10;52.20;;;;;;4955501;28;20459;-88
2022/05/23 11:58:21;;;;;;;5.30;2.15;;;30.30;51.30;;;;;;4955247;28;20137;-86
2022/05/23 12:01:18;;;;;;;5.28;1.90;;;30.20;51.10;;;;;;4973820;28;20541;-85
2022/05/23 12:03:54;;;;;;;4.68;1.77;;;30.70;50.80;;;;;;4957571;28;20057;-85
2022/05/23 12:06:29;;;;;;;5.18;2.08;;;30.80;50.80;;;;;;4979440;28;20058;-87
2022/05/23 12:08:58;;;;;;;5.15;1.85;;;30.80;50.60;;;;;;4956992;28;20063;-86
2022/05/23 12:11:36;;;;;;;5.22;2.00;;;31.00;49.90;;;;;;4955671;28;20209;-86
2022/05/23 12:14:14;;;;;;;6.25;1.73;;;30.60;48.40;;;;;;4956170;28;20055;-85
2022/05/23 12:16:54;;;;;;;5.65;1.50;;;30.40;50.00;;;;;;4972737;28;20057;-85
2022/05/23 12:19:32;;;;;;;5.13;2.00;;;30.30;50.60;;;;;;4956982;28;20415;-85
2022/05/23 12:22:17;;;;;;;6.95;2.33;;;30.40;53.70;;;;;;4962854;28;20062;-85
2022/05/23 12:25:18;;;;;;;4.53;1.73;;;30.70;54.50;;;;;;4962867;28;20054;-85
2022/05/23 12:27:44;;;;;;;5.93;1.60;;;30.40;48.40;;;;;;4972734;28;20270;-86
2022/05/23 12:30:20;;;;;;;5.07;1.70;;;30.40;51.60;;;;;;4954732;28;20068;-83
2022/05/23 12:32:58;;;;;;;5.05;1.70;;;30.60;50.70;;;;;;4972225;28;20051;-86
2022/05/23 12:35:30;;;;;;;4.35;1.73;;;31.00;49.10;;;;;;4954240;28;20050;-87
2022/05/23 12:38:01;;;;;;;5.35;2.00;;;31.10;49.00;;;;;;4974630;28;20055;-86
2022/05/23 12:40:49;;;;;;;4.88;1.88;;;31.30;48.50;;;;;;4980014;28;20054;-87
2022/05/23 12:43:39;;;;;;;4.68;1.70;;;31.20;49.00;;;;;;4973379;28;20061;-85
2022/05/23 12:46:22;;;;;;;4.43;2.00;;;31.30;50.10;;;;;;4954458;28;20608;-87
2022/05/23 12:48:59;;;;;;;6.65;1.58;;;31.50;48.30;;;;;;4955040;28;20101;-88
2022/05/23 12:51:39;;;;;;;6.22;1.98;;;31.60;47.80;;;;;;4972313;28;20051;-86
2022/05/23 12:54:29;;;;;;;7.13;1.80;;;31.70;47.70;;;;;;4971884;28;20121;-85
2022/05/23 12:57:01;;;;;;;6.68;1.88;;;31.80;47.50;;;;;;4978764;28;20050;-85
2022/05/23 13:00:15;;;;;;;5.07;1.67;;;31.50;47.10;;;;;;4982796;28;20061;-84
2022/05/23 13:03:28;;;;;;;4.10;2.13;;;31.40;48.40;;;;;;4879114;29;20057;-84
2022/05/23 13:06:09;;;;;;;4.80;1.75;;;30.80;48.50;;;;;;4841983;29;20053;-84
2022/05/23 13:08:54;;;;;;;5.93;1.85;;;30.30;48.00;;;;;;4912957;29;20584;-84
2022/05/23 13:11:29;;;;;;;4.47;2.03;;;29.70;49.30;;;;;;4962561;28;20120;-85
2022/05/23 13:13:58;;;;;;;5.80;2.10;;;29.40;49.80;;;;;;4976468;28;20073;-85
2022/05/23 13:16:27;;;;;;;7.38;1.98;;;29.00;50.40;;;;;;4982233;28;20086;-85
2022/05/23 13:27:13;;;;;;;6.05;1.50;;;27.90;53.40;;;;;;4957841;28;20567;-84
2022/05/23 13:29:40;;;;;;;5.18;1.75;;;27.90;54.50;;;;;;4975221;28;20503;-85
2022/05/23 13:32:13;;;;;;;6.25;2.17;;;27.70;54.80;;;;;;4958025;28;20053;-87
2022/05/23 13:34:42;;;;;;;6.63;1.90;;;27.60;56.40;;;;;;4958171;28;20051;-84
2022/05/23 13:37:09;;;;;;;5.30;1.42;;;27.50;56.00;;;;;;4979953;28;20474;-83
2022/05/23 13:39:46;;;;;;;8.27;1.98;;;27.20;57.20;;;;;;4962774;28;20046;-85
2022/05/23 13:42:20;;;;;;;9.43;2.25;;;27.10;58.00;;;;;;4979303;28;20053;-86
2022/05/23 13:44:46;;;;;;;5.63;1.70;;;26.80;70.10;;;;;;4976445;28;20134;-89
2022/05/23 13:47:21;;;;;;;5.55;1.98;;;26.60;82.70;;;;;;4974972;28;20138;-84
2022/05/23 13:49:57;;;;;;;5.40;2.05;;;26.40;90.10;;;;;;4974749;28;20504;-83
2022/05/23 13:52:38;;;;;;;8.10;2.17;;;26.10;93.30;;;;;;4975888;28;20047;-84
2022/05/23 13:55:16;;;;;;;5.50;1.75;;;26.00;93.40;;;;;;4976170;28;20466;-84
2022/05/23 13:57:52;;;;;;;7.85;2.40;;;25.90;95.20;;;;;;4979789;28;20055;-83
2022/05/23 14:00:26;;;;;;;4.20;2.13;;;25.70;96.60;;;;;;4968102;28;20478;-83
2022/05/23 14:03:02;;;;;;;4.43;2.58;;;25.60;97.80;;;;;;4943735;29;20055;-84
2022/05/23 14:05:31;;;;;;;6.68;2.30;;;25.50;96.00;;;;;;4940771;29;20086;-83
2022/05/23 14:07:57;;;;;;;5.65;2.20;;;25.60;96.60;;;;;;4958080;28;20134;-83
2022/05/23 14:10:27;;;;;;;5.43;2.60;;;25.70;97.10;;;;;;4939742;29;20114;-85
2022/05/23 14:12:59;;;;;;;5.60;1.85;;;25.90;95.50;;;;;;4940122;29;20062;-84
2022/05/23 14:15:28;;;;;;;5.22;1.77;;;25.90;94.20;;;;;;4961072;29;20055;-86
2022/05/23 14:17:55;;;;;;;6.20;2.38;;;26.00;94.50;;;;;;4955800;29;20051;-84
2022/05/23 14:20:24;;;;;;;5.55;2.05;;;26.10;94.10;;;;;;4938459;29;20051;-84
2022/05/23 14:23:21;;;;;;;8.27;2.83;;;26.30;93.90;;;;;;4955504;29;20492;-85